Time;durP1;ratioP1;P1;durP2;ratioP2;P2;SDS_P1;SDS_P2;PMS_P1;PMS_P2;Temp;Humidity;BMP_temperature;BMP_pressure;BME280_temperature;BME280_humidity;BME280_pressure;Samples;Min_cycle;Max_cycle;Signal;HPM_P1;HPM_P2
2023/08/24 00:01:02;;;;;;;;;9.67;9.67;;;;;27.61;50.92;101176.53;5088397;27;45497;-53
2023/08/24 00:03:28;;;;;;;;;8.00;8.00;;;;;27.57;50.91;101181.50;5102043;27;49717;-53
2023/08/24 00:05:53;;;;;;;;;9.67;9.00;;;;;27.56;50.98;101175.19;5096266;27;46999;-52
2023/08/24 00:08:19;;;;;;;;;8.67;8.67;;;;;27.53;50.97;101170.09;5083646;28;45369;-52
2023/08/24 00:10:46;;;;;;;;;8.33;8.33;;;;;27.49;50.73;101171.47;5085073;27;45364;-51
2023/08/24 00:13:12;;;;;;;;;11.50;8.00;;;;;27.42;51.00;101162.31;5098467;27;45231;-49
2023/08/24 00:15:38;;;;;;;;;8.00;8.00;;;;;27.32;51.04;101148.81;5084445;27;45349;-50
2023/08/24 00:18:04;;;;;;;;;10.50;9.00;;;;;27.26;51.29;101154.16;5090721;27;45296;-53
2023/08/24 00:20:30;;;;;;;;;10.00;8.00;;;;;27.20;51.42;101162.03;5101964;27;45471;-50
2023/08/24 00:22:55;;;;;;;;;7.33;7.33;;;;;27.15;51.60;101156.25;5097880;27;45431;-53
2023/08/24 00:25:20;;;;;;;;;10.50;8.25;;;;;27.10;51.41;101160.56;5088093;27;45988;-53
2023/08/24 00:27:46;;;;;;;;;6.50;5.00;;;;;27.03;51.36;101158.53;5096992;27;46740;-52
2023/08/24 00:30:11;;;;;;;;;9.00;7.25;;;;;26.97;51.52;101152.91;5100311;27;47635;-52
2023/08/24 00:32:37;;;;;;;;;6.00;6.00;;;;;26.90;51.85;101166.41;5092889;27;46494;-53
2023/08/24 00:35:04;;;;;;;;;11.00;9.00;;;;;26.86;51.73;101165.06;5101937;27;71003;-52
2023/08/24 00:37:30;;;;;;;;;7.00;7.00;;;;;26.82;51.44;101164.56;5091852;27;45414;-52
2023/08/24 00:39:55;;;;;;;;;8.25;7.50;;;;;26.79;51.96;101164.94;5100241;27;45810;-52
2023/08/24 00:42:22;;;;;;;;;5.00;5.00;;;;;26.78;51.86;101165.94;5088464;27;64845;-53
2023/08/24 00:44:50;;;;;;;;;7.00;7.00;;;;;26.73;51.68;101157.44;5085413;27;46091;-50
2023/08/24 00:47:17;;;;;;;;;7.25;6.00;;;;;26.71;52.30;101162.19;5097329;27;45370;-51
2023/08/24 00:49:42;;;;;;;;;11.75;7.25;;;;;26.69;51.90;101159.63;5101783;27;45481;-52
2023/08/24 00:52:07;;;;;;;;;9.67;8.00;;;;;26.68;51.44;101165.25;5090076;27;69322;-52
2023/08/24 00:54:33;;;;;;;;;5.25;5.25;;;;;26.65;51.70;101166.47;5071307;28;74179;-52
2023/08/24 00:56:59;;;;;;;;;7.50;7.00;;;;;26.62;52.00;101163.22;5072605;28;61237;-53
2023/08/24 00:59:24;;;;;;;;;9.25;6.25;;;;;26.59;52.21;101164.41;5085151;27;45683;-53
2023/08/24 01:01:50;;;;;;;;;7.25;7.25;;;;;26.56;51.99;101159.31;5090753;27;70225;-52
2023/08/24 01:04:16;;;;;;;;;5.50;5.50;;;;;26.53;52.11;101162.38;5087498;27;66748;-52
2023/08/24 01:06:41;;;;;;;;;5.25;5.25;;;;;26.49;52.91;101156.44;5097459;27;54885;-52
2023/08/24 01:09:07;;;;;;;;;10.00;8.25;;;;;26.48;51.97;101156.59;5092267;27;45408;-53
2023/08/24 01:11:46;;;;;;;;;7.67;6.00;;;;;26.44;52.99;101150.66;5080551;27;65580;-52
2023/08/24 01:14:21;;;;;;;;;6.50;6.50;;;;;26.42;52.74;101150.81;5093073;27;47409;-53
2023/08/24 01:16:48;;;;;;;;;4.25;4.25;;;;;26.39;53.30;101153.88;5092391;27;45436;-53
2023/08/24 01:19:36;;;;;;;;;13.50;9.00;;;;;26.35;53.49;101157.16;5076030;27;45472;-53
2023/08/24 01:22:07;;;;;;;;;8.67;8.00;;;;;26.31;53.02;101161.22;5093193;27;45439;-50
2023/08/24 01:24:48;;;;;;;;;9.33;8.67;;;;;26.25;53.11;101152.69;5070731;27;45475;-49
2023/08/24 01:27:14;;;;;;;;;9.67;8.33;;;;;26.22;53.91;101157.66;5073598;27;45272;-51
2023/08/24 01:29:40;;;;;;;;;9.67;8.00;;;;;26.21;53.48;101156.78;5063162;27;49117;-52
2023/08/24 01:32:09;;;;;;;;;12.50;10.00;;;;;26.19;54.21;101153.41;5072569;27;45601;-49
2023/08/24 01:34:37;;;;;;;;;8.00;8.00;;;;;26.16;53.96;101136.53;5070378;27;46522;-51
2023/08/24 01:37:02;;;;;;;;;10.33;8.33;;;;;26.12;54.04;101135.19;5095413;27;45442;-51
2023/08/24 01:39:33;;;;;;;;;9.00;7.67;;;;;26.08;54.40;101137.38;5058599;27;45681;-51
2023/08/24 01:42:01;;;;;;;;;9.33;7.67;;;;;26.05;54.52;101130.41;5070742;27;45694;-50
2023/08/24 01:44:28;;;;;;;;;7.33;7.33;;;;;26.01;54.34;101125.41;5095388;27;45404;-52
2023/08/24 01:46:54;;;;;;;;;6.33;5.33;;;;;25.99;54.51;101127.47;5087464;27;45305;-49
2023/08/24 01:49:21;;;;;;;;;9.00;9.00;;;;;25.98;54.71;101123.88;5050638;27;68784;-50
2023/08/24 01:51:47;;;;;;;;;9.33;9.00;;;;;25.95;55.04;101118.78;5074894;27;45517;-50
2023/08/24 01:54:12;;;;;;;;;11.50;8.50;;;;;25.92;55.43;101117.25;5079359;27;54869;-52
2023/08/24 01:56:38;;;;;;;;;11.33;9.67;;;;;25.87;55.42;101111.47;5080667;27;68219;-49
2023/08/24 01:59:03;;;;;;;;;8.67;8.67;;;;;25.85;55.00;101116.25;5088261;27;63891;-52
2023/08/24 02:01:28;;;;;;;;;9.67;8.67;;;;;25.84;54.80;101114.53;5071136;28;51524;-50
2023/08/24 02:03:54;;;;;;;;;8.50;8.50;;;;;25.82;55.39;101116.56;5087864;27;46004;-51
2023/08/24 02:06:19;;;;;;;;;7.00;7.00;;;;;25.78;56.09;101115.22;5090090;27;45679;-52
2023/08/24 02:08:45;;;;;;;;;10.33;8.67;;;;;25.73;55.96;101109.41;5090530;27;45425;-49
2023/08/24 02:11:10;;;;;;;;;9.33;8.67;;;;;25.70;56.32;101107.03;5094128;27;45355;-49
2023/08/24 02:13:36;;;;;;;;;8.00;8.00;;;;;25.66;55.79;101111.13;5094952;27;69753;-51
2023/08/24 02:16:06;;;;;;;;;9.00;8.67;;;;;25.65;55.71;101110.25;5086444;27;45367;-49
2023/08/24 02:18:31;;;;;;;;;8.33;6.67;;;;;25.61;56.23;101110.78;5094755;27;45495;-51
2023/08/24 02:20:57;;;;;;;;;11.00;10.00;;;;;25.58;56.19;101107.38;5085785;27;45524;-49
2023/08/24 02:23:22;;;;;;;;;6.00;6.00;;;;;25.54;56.07;101095.09;5083619;27;46206;-51
2023/08/24 02:25:47;;;;;;;;;10.67;8.67;;;;;25.51;56.48;101092.69;5082759;27;71616;-49
2023/08/24 02:28:13;;;;;;;;;7.00;7.00;;;;;25.48;56.63;101094.94;5090533;27;65846;-53
2023/08/24 02:30:39;;;;;;;;;8.67;8.00;;;;;25.45;56.42;101081.63;5090596;27;65063;-51
2023/08/24 02:33:04;;;;;;;;;9.67;8.67;;;;;25.42;56.38;101082.81;5096323;27;46967;-52
2023/08/24 02:35:29;;;;;;;;;8.33;8.33;;;;;25.39;57.17;101080.44;5087317;27;45398;-49
2023/08/24 02:37:56;;;;;;;;;8.00;8.00;;;;;25.34;56.45;101072.75;5094937;27;65553;-51
2023/08/24 02:40:22;;;;;;;;;7.67;7.67;;;;;25.27;57.04;101069.00;5092325;27;45583;-52
2023/08/24 02:42:47;;;;;;;;;9.67;6.00;;;;;25.19;57.47;101067.09;5089534;27;45556;-51
2023/08/24 02:45:13;;;;;;;;;8.67;7.67;;;;;25.15;57.11;101064.88;5083090;27;73136;-49
2023/08/24 02:47:38;;;;;;;;;7.33;7.33;;;;;25.12;57.77;101066.06;5086452;27;45477;-51
2023/08/24 02:50:06;;;;;;;;;9.33;9.00;;;;;25.10;57.74;101063.50;5080265;27;59307;-52
2023/08/24 02:52:31;;;;;;;;;11.00;8.33;;;;;25.06;57.28;101053.13;5073302;27;46164;-50
2023/08/24 02:54:56;;;;;;;;;7.67;7.67;;;;;25.05;57.63;101046.00;5093636;27;45524;-52
2023/08/24 02:57:22;;;;;;;;;6.67;6.67;;;;;25.06;57.61;101045.81;5091551;27;67658;-51
2023/08/24 02:59:47;;;;;;;;;9.33;8.67;;;;;25.07;58.37;101049.38;5088317;27;69200;-52
2023/08/24 03:02:13;;;;;;;;;8.67;8.67;;;;;25.08;57.77;101042.91;5095317;27;69703;-51
2023/08/24 03:04:38;;;;;;;;;8.67;8.67;;;;;25.10;58.28;101039.03;5082715;27;45909;-50
2023/08/24 03:07:03;;;;;;;;;11.00;9.33;;;;;25.11;58.17;101042.59;5089234;27;46892;-52
2023/08/24 03:09:29;;;;;;;;;7.00;7.00;;;;;25.06;58.23;101031.38;5071868;27;45382;-51
2023/08/24 03:11:54;;;;;;;;;9.33;8.00;;;;;25.04;58.45;101030.69;5083901;27;74537;-51
2023/08/24 03:14:20;;;;;;;;;11.00;10.00;;;;;25.00;57.98;101027.44;5088347;27;45347;-50
2023/08/24 03:16:45;;;;;;;;;8.00;8.00;;;;;24.96;58.47;101022.50;5083386;27;45525;-52
2023/08/24 03:19:12;;;;;;;;;9.33;9.33;;;;;24.93;58.21;101021.81;5095735;27;45414;-51
2023/08/24 03:21:37;;;;;;;;;9.67;8.33;;;;;24.91;58.36;101023.84;5088867;27;47187;-52
2023/08/24 03:24:04;;;;;;;;;9.67;8.33;;;;;24.89;59.34;101025.88;5089675;27;71453;-49
2023/08/24 03:26:30;;;;;;;;;12.67;9.67;;;;;24.88;58.59;101024.16;5088359;27;45379;-52
2023/08/24 03:28:55;;;;;;;;;11.67;8.00;;;;;24.86;58.87;101018.06;5092680;27;45493;-51
2023/08/24 03:31:20;;;;;;;;;8.00;8.00;;;;;24.85;59.09;101016.34;5087712;27;72636;-52
2023/08/24 03:33:46;;;;;;;;;9.00;9.00;;;;;24.86;58.76;101014.47;5083934;27;45378;-50
2023/08/24 03:36:12;;;;;;;;;9.33;9.33;;;;;24.83;58.53;101014.81;5092058;27;45624;-49
2023/08/24 03:38:38;;;;;;;;;10.00;8.33;;;;;24.84;58.95;101011.91;5082759;27;45351;-50
2023/08/24 03:41:04;;;;;;;;;10.00;10.00;;;;;24.84;58.58;101009.19;5081375;27;46080;-51
2023/08/24 03:43:33;;;;;;;;;10.33;10.33;;;;;24.82;58.59;101005.78;5095486;27;45677;-50
2023/08/24 03:45:58;;;;;;;;;13.33;11.67;;;;;24.83;58.92;101003.94;5083682;27;45383;-51
2023/08/24 03:48:24;;;;;;;;;10.00;10.00;;;;;24.84;58.97;101009.19;5075304;27;45482;-51
2023/08/24 03:50:49;;;;;;;;;9.67;9.67;;;;;24.85;58.70;101005.47;5092384;27;46096;-53
2023/08/24 03:53:14;;;;;;;;;10.33;10.33;;;;;24.85;58.71;101008.19;5086889;27;50075;-52
2023/08/24 03:55:40;;;;;;;;;11.67;10.33;;;;;24.86;58.72;101006.31;5078149;27;45524;-51
2023/08/24 03:58:05;;;;;;;;;9.00;9.00;;;;;24.87;59.02;100997.97;5091922;27;65902;-50
2023/08/24 04:00:30;;;;;;;;;13.00;10.00;;;;;24.87;58.63;100994.41;5085749;27;46090;-53
2023/08/24 04:02:56;;;;;;;;;11.00;11.00;;;;;24.87;58.42;101000.69;5079523;27;45264;-49
2023/08/24 04:05:21;;;;;;;;;10.00;10.00;;;;;24.87;59.01;100991.69;5082251;27;60254;-52
2023/08/24 04:07:47;;;;;;;;;12.67;11.00;;;;;24.88;58.63;101012.44;5091768;27;45584;-49
2023/08/24 04:10:12;;;;;;;;;13.67;13.67;;;;;24.87;58.93;101003.41;5086963;27;46108;-51
2023/08/24 04:12:38;;;;;;;;;9.00;9.00;;;;;24.88;58.30;101005.13;5088867;27;49445;-50
2023/08/24 04:15:04;;;;;;;;;10.00;10.00;;;;;24.89;58.22;101000.56;5090700;27;68617;-48
2023/08/24 04:17:30;;;;;;;;;14.00;11.00;;;;;24.89;58.77;100992.41;5092488;27;45446;-49
2023/08/24 04:19:55;;;;;;;;;17.67;14.67;;;;;24.89;58.70;100995.94;5083934;27;61966;-52
2023/08/24 04:22:20;;;;;;;;;10.67;10.33;;;;;24.89;58.33;100992.41;5094097;27;45394;-50
2023/08/24 04:24:46;;;;;;;;;14.00;12.00;;;;;24.89;57.91;101000.56;5071528;27;45396;-51
2023/08/24 04:27:11;;;;;;;;;14.00;12.67;;;;;24.85;58.05;100993.72;5088831;27;45265;-49
2023/08/24 04:29:36;;;;;;;;;11.00;11.00;;;;;24.83;58.06;100983.00;5079380;27;73449;-48
2023/08/24 04:32:02;;;;;;;;;12.00;11.33;;;;;24.82;58.78;100981.31;5083651;27;45390;-50
2023/08/24 04:34:27;;;;;;;;;14.00;10.00;;;;;24.79;58.53;100987.09;5080298;27;45310;-48
2023/08/24 04:36:54;;;;;;;;;12.00;11.67;;;;;24.77;58.80;100987.25;5097434;27;69445;-51
2023/08/24 04:39:20;;;;;;;;;10.67;10.33;;;;;24.78;58.14;100971.78;5085445;27;46196;-52
2023/08/24 04:41:45;;;;;;;;;13.33;12.33;;;;;24.77;58.71;100965.50;5095288;27;45476;-50
2023/08/24 04:44:10;;;;;;;;;13.00;11.00;;;;;24.75;58.97;100963.97;5092865;27;45331;-51
2023/08/24 04:46:36;;;;;;;;;13.00;11.33;;;;;24.73;58.21;100957.81;5076833;27;45398;-49
2023/08/24 04:49:01;;;;;;;;;14.67;11.00;;;;;24.72;58.72;100958.88;5094734;27;73637;-51
2023/08/24 04:51:27;;;;;;;;;10.00;10.00;;;;;24.72;58.85;100964.31;5090866;27;45418;-51
2023/08/24 04:53:53;;;;;;;;;8.00;8.00;;;;;24.72;58.52;100958.88;5091965;27;45651;-49
2023/08/24 04:56:19;;;;;;;;;11.00;10.33;;;;;24.71;57.93;100952.56;5101354;27;45361;-52
2023/08/24 04:58:55;;;;;;;;;11.00;10.00;;;;;24.72;58.33;100956.16;5088944;27;46145;-52
2023/08/24 05:01:20;;;;;;;;;13.00;11.75;;;;;24.72;57.92;100951.56;5100864;27;45354;-52
2023/08/24 05:03:46;;;;;;;;;11.33;9.67;;;;;24.74;58.44;100959.53;5091100;27;65957;-49
2023/08/24 05:06:11;;;;;;;;;11.33;10.33;;;;;24.75;58.31;100959.38;5088442;27;68444;-52
2023/08/24 05:08:36;;;;;;;;;14.00;11.00;;;;;24.77;57.51;100957.34;5093958;27;47283;-48
2023/08/24 05:11:10;;;;;;;;;10.33;8.33;;;;;24.79;57.61;100949.00;5073434;27;70518;-51
2023/08/24 05:13:36;;;;;;;;;11.67;9.33;;;;;24.81;57.67;100957.88;5094320;27;45398;-49
2023/08/24 05:16:01;;;;;;;;;9.67;8.00;;;;;24.82;57.36;100967.72;5084817;27;68262;-49
2023/08/24 05:18:27;;;;;;;;;11.67;9.67;;;;;24.85;56.89;100961.09;5093018;27;74239;-50
2023/08/24 05:20:52;;;;;;;;;12.00;11.00;;;;;24.88;57.66;100969.75;5081627;27;69965;-50
2023/08/24 05:23:18;;;;;;;;;10.67;10.67;;;;;24.93;57.41;100978.28;5085132;27;66025;-51
2023/08/24 05:25:43;;;;;;;;;9.33;9.33;;;;;25.02;57.41;100981.03;5079728;27;62750;-51
2023/08/24 05:28:08;;;;;;;;;13.00;10.33;;;;;25.10;56.98;100975.59;5080153;27;74607;-49
2023/08/24 05:30:34;;;;;;;;;7.50;7.50;;;;;25.17;56.80;100973.88;5091791;27;45519;-49
2023/08/24 05:32:59;;;;;;;;;9.33;8.33;;;;;25.25;56.10;100971.19;5081656;27;64526;-49
2023/08/24 05:35:27;;;;;;;;;11.33;8.67;;;;;25.33;56.50;100973.06;5079926;27;66627;-50
2023/08/24 05:37:52;;;;;;;;;8.50;8.50;;;;;25.42;56.53;100963.03;5081539;27;46211;-51
2023/08/24 05:40:18;;;;;;;;;10.00;8.33;;;;;25.52;55.59;100954.72;5088899;27;45541;-51
2023/08/24 05:42:43;;;;;;;;;8.00;8.00;;;;;25.65;55.43;100965.09;5086865;27;67088;-48
2023/08/24 05:45:09;;;;;;;;;12.00;12.00;;;;;25.79;54.86;100956.22;5084561;27;45532;-49
2023/08/24 05:47:34;;;;;;;;;13.00;9.67;;;;;25.95;54.89;100940.84;5082840;27;45521;-50
2023/08/24 05:49:59;;;;;;;;;12.67;11.67;;;;;26.13;54.92;100937.94;5080356;27;45680;-51
2023/08/24 05:52:25;;;;;;;;;9.75;9.00;;;;;26.33;53.81;100927.47;5079344;27;68526;-52
2023/08/24 05:54:50;;;;;;;;;11.75;10.25;;;;;26.52;54.60;100915.28;5087354;27;45635;-48
2023/08/24 05:57:16;;;;;;;;;11.00;10.67;;;;;26.68;53.74;100911.59;5083444;27;46935;-50
2023/08/24 05:59:41;;;;;;;;;11.67;10.33;;;;;26.77;53.75;100924.19;5087713;27;45594;-51
2023/08/24 06:02:06;;;;;;;;;8.33;7.33;;;;;26.85;52.69;100935.03;5089840;27;45633;-49
2023/08/24 06:04:32;;;;;;;;;9.67;9.67;;;;;26.97;53.04;100948.25;5090825;27;68649;-50
2023/08/24 06:06:57;;;;;;;;;9.00;8.25;;;;;27.07;52.35;100943.41;5085953;27;45431;-53
2023/08/24 06:09:23;;;;;;;;;9.75;9.75;;;;;27.14;52.32;100941.63;5052011;27;45625;-52
2023/08/24 06:11:48;;;;;;;;;9.25;7.50;;;;;27.18;52.05;100944.84;5067371;27;45990;-50
2023/08/24 06:14:13;;;;;;;;;11.67;9.67;;;;;27.19;51.29;100941.94;5081811;27;67399;-49
2023/08/24 06:16:38;;;;;;;;;11.75;8.75;;;;;27.16;51.04;100952.41;5085167;27;48969;-51
2023/08/24 06:19:04;;;;;;;;;10.33;9.00;;;;;27.12;51.00;100946.44;5085017;27;68841;-48
2023/08/24 06:21:29;;;;;;;;;12.00;10.67;;;;;27.08;50.77;100956.03;5065719;27;66990;-51
2023/08/24 06:23:54;;;;;;;;;13.00;11.33;;;;;27.07;50.93;100965.25;5089152;27;45465;-51
2023/08/24 06:26:20;;;;;;;;;9.33;9.33;;;;;27.05;50.26;100967.28;5092315;27;72669;-50
2023/08/24 06:28:45;;;;;;;;;12.25;9.50;;;;;27.04;50.74;100962.88;5093376;27;45368;-48
2023/08/24 06:31:11;;;;;;;;;13.00;12.00;;;;;27.05;50.91;100964.56;5081468;27;45696;-52
2023/08/24 06:33:37;;;;;;;;;8.00;8.00;;;;;27.04;50.20;100946.50;5086850;27;45737;-50
2023/08/24 06:36:07;;;;;;;;;8.75;8.75;;;;;27.04;50.32;100947.34;5084886;27;46200;-52
2023/08/24 06:38:33;;;;;;;;;11.33;11.33;;;;;27.03;50.20;100940.19;5086449;27;45285;-53
2023/08/24 06:40:59;;;;;;;;;12.00;11.00;;;;;27.07;50.07;100946.97;5085493;27;45423;-53
2023/08/24 06:43:28;;;;;;;;;9.67;9.67;;;;;27.16;50.06;100949.66;5071807;27;45574;-51
2023/08/24 06:45:57;;;;;;;;;10.67;10.67;;;;;27.28;50.03;100950.06;5096410;27;46072;-53
2023/08/24 06:48:22;;;;;;;;;12.00;12.00;;;;;27.45;49.79;100948.94;5092617;27;70781;-52
2023/08/24 06:50:47;;;;;;;;;12.33;11.00;;;;;27.69;49.22;100947.00;5087441;27;45280;-51
2023/08/24 06:53:14;;;;;;;;;8.33;8.33;;;;;28.02;48.16;100946.69;5089982;27;45338;-53
2023/08/24 06:55:39;;;;;;;;;9.00;9.00;;;;;28.41;48.13;100950.13;5084772;27;47082;-51
2023/08/24 06:58:05;;;;;;;;;11.67;11.67;;;;;29.11;47.49;100942.31;5090301;27;72472;-52
2023/08/24 07:00:30;;;;;;;;;8.33;8.33;;;;;29.69;46.17;100939.47;5089461;27;45534;-53
2023/08/24 07:02:56;;;;;;;;;10.75;10.75;;;;;30.20;45.43;100928.19;5080803;27;45583;-51
2023/08/24 07:05:21;;;;;;;;;11.67;9.33;;;;;30.67;44.34;100927.56;5081991;27;72237;-53
2023/08/24 07:07:47;;;;;;;;;10.67;10.33;;;;;30.59;44.17;100930.50;5084379;27;61764;-51
2023/08/24 07:10:13;;;;;;;;;9.33;9.33;;;;;30.43;43.45;100943.50;5089482;27;45447;-53
2023/08/24 07:12:40;;;;;;;;;8.50;8.50;;;;;30.29;44.06;100944.47;5073390;27;45523;-53
2023/08/24 07:15:07;;;;;;;;;10.50;9.00;;;;;30.56;44.33;100934.50;5095922;27;47103;-50
2023/08/24 07:17:32;;;;;;;;;8.67;8.00;;;;;30.95;43.20;100938.38;5086781;27;45331;-52
2023/08/24 07:19:57;;;;;;;;;11.33;8.67;;;;;32.00;42.20;100932.25;5090693;27;59729;-52
2023/08/24 07:22:23;;;;;;;;;10.67;9.67;;;;;33.78;40.32;100937.09;5080657;27;45512;-52
2023/08/24 07:24:52;;;;;;;;;13.33;12.00;;;;;34.65;37.62;100934.44;5089438;27;67790;-53
2023/08/24 07:27:17;;;;;;;;;13.00;11.33;;;;;34.40;36.91;100938.97;5091058;27;45469;-54
2023/08/24 07:29:43;;;;;;;;;7.50;7.00;;;;;33.55;36.85;100942.44;5070897;27;45962;-52
2023/08/24 07:32:08;;;;;;;;;11.00;8.67;;;;;32.55;38.29;100938.41;5089910;27;70851;-51
2023/08/24 07:34:34;;;;;;;;;9.33;9.33;;;;;31.79;38.90;100924.28;5090007;27;51694;-52
2023/08/24 07:36:59;;;;;;;;;11.75;9.75;;;;;31.16;39.70;100917.31;5082220;27;45636;-49
2023/08/24 07:39:25;;;;;;;;;13.00;11.00;;;;;30.69;40.61;100906.25;5077481;27;49583;-49
2023/08/24 07:41:51;;;;;;;;;11.67;11.67;;;;;31.29;40.85;100906.31;5087027;27;45901;-50
2023/08/24 07:44:16;;;;;;;;;17.67;15.67;;;;;33.46;39.18;100912.38;5087955;27;46225;-53
2023/08/24 07:46:42;;;;;;;;;11.00;9.75;;;;;33.94;36.79;100910.88;5090988;27;45582;-51
2023/08/24 07:49:07;;;;;;;;;11.00;9.00;;;;;34.75;36.90;100898.81;5087376;27;45898;-54
2023/08/24 07:51:33;;;;;;;;;9.00;9.00;;;;;36.61;34.46;100890.06;5086699;27;45397;-51
2023/08/24 07:53:59;;;;;;;;;10.25;8.25;;;;;37.74;32.93;100880.84;5085442;27;46273;-53
2023/08/24 07:56:24;;;;;;;;;13.00;12.00;;;;;37.50;32.18;100873.84;5083037;27;45246;-52
2023/08/24 07:58:49;;;;;;;;;11.00;11.00;;;;;36.47;32.37;100883.16;5081739;27;45293;-53
2023/08/24 08:01:15;;;;;;;;;16.00;13.50;;;;;37.77;32.41;100898.03;5085751;27;69472;-53
2023/08/24 08:03:40;;;;;;;;;13.00;12.00;;;;;39.98;30.99;100916.84;5090374;27;74323;-51
2023/08/24 08:06:05;;;;;;;;;11.00;8.50;;;;;42.09;28.33;100934.84;5074179;27;45368;-54
2023/08/24 08:08:31;;;;;;;;;8.75;8.75;;;;;43.72;26.11;100944.31;5083531;27;68502;-54
2023/08/24 08:11:00;;;;;;;;;10.75;10.00;;;;;44.93;24.70;100946.91;5079937;27;63624;-55
2023/08/24 08:13:26;;;;;;;;;11.00;11.00;;;;;43.90;24.40;100948.28;5072757;27;45926;-54
2023/08/24 08:15:52;;;;;;;;;8.75;8.75;;;;;42.25;25.27;100942.03;5094365;27;45385;-55
2023/08/24 08:18:17;;;;;;;;;7.25;7.00;;;;;42.14;25.87;100934.81;5095263;27;45433;-55
2023/08/24 08:20:42;;;;;;;;;10.50;9.00;;;;;42.96;25.48;100925.94;5090731;27;45540;-55
2023/08/24 08:23:08;;;;;;;;;5.25;4.25;;;;;44.05;24.12;100916.47;5077842;27;71972;-54
2023/08/24 08:25:33;;;;;;;;;9.25;9.25;;;;;43.93;23.96;100914.13;5083637;27;70851;-55
2023/08/24 08:27:58;;;;;;;;;11.25;8.50;;;;;42.37;24.86;100918.50;5090778;27;45325;-55
2023/08/24 08:30:24;;;;;;;;;8.75;8.75;;;;;40.82;25.63;100925.22;5092253;27;62664;-56
2023/08/24 08:32:51;;;;;;;;;8.75;8.50;;;;;39.49;27.30;100931.00;5093722;27;46485;-54
2023/08/24 08:35:17;;;;;;;;;10.00;10.00;;;;;38.02;28.65;100933.66;5074040;28;45865;-54
2023/08/24 08:37:42;;;;;;;;;8.75;8.75;;;;;36.68;30.47;100926.75;5082072;27;45725;-54
2023/08/24 08:40:10;;;;;;;;;10.75;8.50;;;;;35.64;32.15;100944.16;5093429;27;65821;-53
2023/08/24 08:42:35;;;;;;;;;9.25;9.00;;;;;35.13;32.71;100952.84;5085231;27;46152;-53
2023/08/24 08:45:03;;;;;;;;;13.00;11.33;;;;;34.72;32.89;100958.09;5082335;27;45506;-56
2023/08/24 08:47:28;;;;;;;;;9.00;9.00;;;;;34.27;33.98;100961.22;5070070;27;45544;-54
2023/08/24 08:49:55;;;;;;;;;10.67;10.33;;;;;33.76;34.14;100949.44;5087194;27;67830;-53
2023/08/24 08:52:20;;;;;;;;;13.67;12.67;;;;;33.49;34.77;100949.69;5087305;27;46319;-52
2023/08/24 08:54:46;;;;;;;;;7.50;7.50;;;;;33.64;34.77;100963.97;5073174;27;45327;-54
2023/08/24 08:57:11;;;;;;;;;11.33;11.33;;;;;33.91;34.50;100969.25;5099770;27;61909;-54
2023/08/24 08:59:37;;;;;;;;;12.33;10.00;;;;;33.91;34.66;100979.44;5083304;27;45454;-54
2023/08/24 09:02:03;;;;;;;;;14.67;14.67;;;;;33.71;35.41;100972.16;5094103;27;45879;-54
2023/08/24 09:04:32;;;;;;;;;26.00;24.67;;;;;33.47;35.36;100968.38;5095466;27;45537;-53
2023/08/24 09:06:58;;;;;;;;;13.33;12.33;;;;;33.18;35.42;100950.53;5095730;27;45350;-52
2023/08/24 09:09:25;;;;;;;;;8.00;8.00;;;;;33.18;35.72;100932.13;5073032;27;45556;-53
2023/08/24 09:11:50;;;;;;;;;8.50;8.25;;;;;33.64;35.93;100919.03;5091141;27;46551;-53
2023/08/24 09:14:16;;;;;;;;;13.25;11.50;;;;;36.03;34.21;100912.13;5075095;27;68246;-51
2023/08/24 09:16:42;;;;;;;;;8.50;8.50;;;;;37.49;31.46;100905.44;5093906;27;45663;-53
2023/08/24 09:19:11;;;;;;;;;17.00;16.33;;;;;37.17;30.86;100894.91;5062055;27;45545;-54
2023/08/24 09:21:37;;;;;;;;;9.25;9.25;;;;;36.37;31.44;100894.88;5083251;27;45501;-54
2023/08/24 09:24:03;;;;;;;;;10.00;10.00;;;;;35.53;32.75;100893.31;5081061;27;45579;-53
2023/08/24 09:26:33;;;;;;;;;9.00;9.00;;;;;34.81;32.85;100900.63;5088723;27;45704;-53
2023/08/24 09:28:59;;;;;;;;;9.00;9.00;;;;;34.10;34.56;100925.94;5088302;27;45445;-52
2023/08/24 09:31:36;;;;;;;;;9.50;9.50;;;;;33.31;35.02;100945.81;5088659;27;45606;-51
2023/08/24 09:34:02;;;;;;;;;7.25;7.25;;;;;32.69;35.54;100956.56;5093303;27;45320;-54
2023/08/24 09:36:31;;;;;;;;;10.75;9.75;;;;;32.20;36.76;100960.78;5088066;27;45330;-50
2023/08/24 09:38:56;;;;;;;;;9.00;9.00;;;;;31.90;36.98;100950.25;5090248;27;45699;-53
2023/08/24 09:41:21;;;;;;;;;13.50;12.25;;;;;31.65;37.95;100950.94;5090292;27;74042;-54
2023/08/24 09:43:47;;;;;;;;;8.75;8.75;;;;;31.59;37.73;100963.59;5084671;27;73364;-54
2023/08/24 09:46:18;;;;;;;;;9.00;7.50;;;;;31.66;37.91;100974.63;5065228;27;67634;-53
2023/08/24 09:48:44;;;;;;;;;8.33;7.33;;;;;31.60;37.92;100981.78;5087134;27;45423;-53
2023/08/24 09:51:09;;;;;;;;;11.00;9.25;;;;;31.48;37.74;101005.44;5081430;27;45712;-54
2023/08/24 09:53:38;;;;;;;;;10.00;8.50;;;;;31.27;38.23;101004.56;5080878;27;60344;-54
2023/08/24 09:56:06;;;;;;;;;9.00;9.00;;;;;31.05;38.94;101003.06;5090329;27;45426;-52
2023/08/24 09:58:32;;;;;;;;;9.00;9.00;;;;;30.81;38.96;101003.38;5075450;27;45489;-54
2023/08/24 10:00:58;;;;;;;;;7.33;7.33;;;;;30.65;39.54;101011.97;5068327;27;46094;-51
2023/08/24 10:03:27;;;;;;;;;9.00;9.00;;;;;30.51;39.23;101005.59;5068218;28;45463;-54
2023/08/24 10:05:54;;;;;;;;;7.00;7.00;;;;;30.37;39.87;101012.88;5088781;27;45426;-54
2023/08/24 10:08:46;;;;;;;;;9.33;9.00;;;;;30.21;40.68;101011.31;5100484;27;45336;-53
2023/08/24 10:11:15;;;;;;;;;9.67;9.67;;;;;30.08;40.80;100998.38;5073376;27;45418;-50
2023/08/24 10:13:53;;;;;;;;;7.67;7.00;;;;;29.93;41.02;100983.94;5076115;27;45411;-53
2023/08/24 10:16:19;;;;;;;;;7.50;7.00;;;;;29.89;41.10;100971.66;5082053;27;45295;-51
2023/08/24 10:18:46;;;;;;;;;9.50;7.50;;;;;29.88;41.54;100965.31;5075191;27;63303;-51
2023/08/24 10:21:12;;;;;;;;;8.33;8.33;;;;;29.89;41.68;100958.81;5095465;27;72756;-64
2023/08/24 10:23:39;;;;;;;;;10.00;10.00;;;;;29.90;41.10;100962.41;5077650;27;73641;-64
2023/08/24 10:26:06;;;;;;;;;9.67;9.67;;;;;29.91;41.79;100962.19;5094400;27;68982;-61
2023/08/24 10:28:32;;;;;;;;;12.67;11.67;;;;;29.98;41.94;100968.56;5084984;27;45412;-61
2023/08/24 10:30:59;;;;;;;;;13.67;11.00;;;;;30.04;41.52;100969.66;5081387;27;47864;-61
2023/08/24 10:33:26;;;;;;;;;14.00;10.00;;;;;30.07;41.60;100982.97;5071109;27;45745;-61
2023/08/24 10:35:52;;;;;;;;;10.00;9.25;;;;;30.09;41.80;100990.97;5072661;27;45398;-62
2023/08/24 10:38:43;;;;;;;;;9.75;8.75;;;;;30.10;41.76;101007.22;5081268;27;45636;-63
2023/08/24 10:41:12;;;;;;;;;7.75;7.75;;;;;30.08;42.21;101017.56;5079326;27;46026;-62
2023/08/24 10:43:38;;;;;;;;;10.75;8.25;;;;;29.98;41.82;101022.56;5078194;28;45397;-63
2023/08/24 10:46:05;;;;;;;;;8.50;8.50;;;;;29.81;42.18;101027.44;5085704;27;45317;-63
2023/08/24 10:48:44;;;;;;;;;12.00;10.00;;;;;29.67;42.33;101027.34;5060784;28;45456;-62
2023/08/24 10:51:28;;;;;;;;;9.00;8.67;;;;;29.62;43.13;101037.19;5093116;27;46240;-63
2023/08/24 10:53:57;;;;;;;;;10.75;8.75;;;;;29.58;42.70;101039.50;5095227;27;45612;-63
2023/08/24 10:56:38;;;;;;;;;9.00;8.25;;;;;29.47;43.19;101032.63;5099490;27;45385;-62
2023/08/24 10:59:14;;;;;;;;;9.25;7.00;;;;;29.38;42.73;101033.81;5086196;27;46618;-62
2023/08/24 11:02:01;;;;;;;;;10.00;9.00;;;;;29.32;42.88;101016.28;5093139;27;46676;-63
2023/08/24 11:04:27;;;;;;;;;10.00;10.00;;;;;29.29;43.34;101035.81;5094236;27;45443;-62
2023/08/24 11:06:54;;;;;;;;;7.00;7.00;;;;;29.23;43.17;101047.56;5067003;27;45533;-63
2023/08/24 11:09:19;;;;;;;;;9.25;9.25;;;;;29.13;43.43;101025.94;5091904;27;45458;-62
2023/08/24 11:12:02;;;;;;;;;7.75;6.00;;;;;29.04;43.67;101032.59;5081263;27;45453;-62
2023/08/24 11:14:29;;;;;;;;;6.25;6.25;;;;;28.93;44.59;101024.88;5066132;27;45591;-63
2023/08/24 11:16:58;;;;;;;;;5.00;5.00;;;;;28.80;44.59;101017.34;5094172;27;45421;-63